Time;durP1;ratioP1;P1;durP2;ratioP2;P2;SDS_P1;SDS_P2;PMS_P1;PMS_P2;Temp;Humidity;BMP_temperature;BMP_pressure;BME280_temperature;BME280_humidity;BME280_pressure;Samples;Min_cycle;Max_cycle;Signal;HPM_P1;HPM_P2
2023/09/22 00:03:01;;;;;;;1.40;1.30;;;;;17.30;95157.00;;;;8336636;28;20225;-72
2023/09/22 00:07:06;;;;;;;3.63;1.20;;;;;17.20;95148.00;;;;8335870;28;20198;-74
2023/09/22 00:11:10;;;;;;;3.70;0.60;;;;;17.00;95147.00;;;;8332166;28;20654;-71
2023/09/22 00:15:13;;;;;;;3.42;0.88;;;;;16.90;95151.00;;;;8335797;28;20372;-69
2023/09/22 00:19:19;;;;;;;0.70;0.70;;;;;16.70;95135.00;;;;8335062;28;20630;-71
2023/09/22 00:23:31;;;;;;;2.72;0.90;;;;;16.60;95141.00;;;;8335790;28;20209;-73
2023/09/22 00:27:34;;;;;;;0.80;0.80;;;;;16.60;95139.00;;;;8335690;28;20630;-75
2023/09/22 00:31:37;;;;;;;0.90;0.90;;;;;16.50;95118.00;;;;8334326;28;20553;-74
2023/09/22 00:35:43;;;;;;;3.63;0.93;;;;;16.40;95117.00;;;;8333949;28;20572;-79
2023/09/22 00:39:47;;;;;;;0.68;0.68;;;;;16.40;95122.00;;;;8335084;28;20582;-77
2023/09/22 00:43:53;;;;;;;1.75;0.70;;;;;16.40;95126.00;;;;8335631;28;20229;-77
2023/09/22 00:48:01;;;;;;;0.85;0.85;;;;;16.40;95131.00;;;;8335514;28;20208;-75
2023/09/22 00:52:07;;;;;;;1.05;0.82;;;;;16.40;95129.00;;;;8335210;28;20194;-74
2023/09/22 00:56:16;;;;;;;0.90;0.90;;;;;16.40;95121.00;;;;8334670;28;20213;-71
2023/09/22 01:00:22;;;;;;;0.80;0.80;;;;;16.40;95129.00;;;;8334898;28;20227;-71
2023/09/22 01:04:26;;;;;;;1.02;0.80;;;;;16.40;95141.00;;;;8335463;28;20225;-73
2023/09/22 01:08:32;;;;;;;1.00;1.00;;;;;16.40;95140.00;;;;8334887;28;20237;-73
2023/09/22 01:12:41;;;;;;;4.13;0.90;;;;;16.40;95135.00;;;;8334149;28;20200;-72
2023/09/22 01:16:46;;;;;;;0.93;0.90;;;;;16.50;95124.00;;;;8334144;28;20197;-70
2023/09/22 01:20:50;;;;;;;1.00;1.00;;;;;16.50;95131.00;;;;8334022;28;20539;-70
2023/09/22 01:24:56;;;;;;;0.90;0.90;;;;;16.50;95133.00;;;;8333815;28;20736;-70
2023/09/22 01:29:01;;;;;;;1.92;1.00;;;;;16.50;95145.00;;;;8334688;28;20288;-70
2023/09/22 01:33:04;;;;;;;0.90;0.90;;;;;16.40;95141.00;;;;8333576;28;20190;-70
2023/09/22 01:37:13;;;;;;;0.82;0.82;;;;;16.40;95166.00;;;;8333712;28;20194;-70
2023/09/22 01:41:20;;;;;;;0.90;0.90;;;;;16.40;95149.00;;;;8333648;28;20292;-70
2023/09/22 01:45:25;;;;;;;2.03;1.02;;;;;16.40;95133.00;;;;8332401;28;20316;-70
2023/09/22 01:49:29;;;;;;;1.85;1.00;;;;;16.40;95140.00;;;;8333002;28;20617;-70
2023/09/22 01:53:32;;;;;;;1.00;1.00;;;;;16.40;95149.00;;;;8333539;28;20204;-70
2023/09/22 01:57:36;;;;;;;0.90;0.90;;;;;16.50;95136.00;;;;8330465;28;20284;-69
2023/09/22 02:01:40;;;;;;;0.88;0.88;;;;;16.50;95130.00;;;;8332809;28;20197;-70
2023/09/22 02:05:43;;;;;;;1.17;1.10;;;;;16.50;95128.00;;;;8332605;28;20209;-73
2023/09/22 02:09:47;;;;;;;1.38;0.95;;;;;16.40;95126.00;;;;8333480;28;20594;-72
2023/09/22 02:13:53;;;;;;;0.82;0.82;;;;;16.40;95117.00;;;;8332995;28;20197;-72
2023/09/22 02:17:56;;;;;;;0.85;0.85;;;;;16.40;95108.00;;;;8332484;28;20280;-71
2023/09/22 02:21:59;;;;;;;1.10;1.10;;;;;16.40;95114.00;;;;8333190;28;20623;-72
2023/09/22 02:26:06;;;;;;;0.98;0.98;;;;;16.40;95121.00;;;;8331907;28;20270;-72
2023/09/22 02:30:11;;;;;;;1.33;0.90;;;;;16.30;95132.00;;;;8332948;28;20601;-72
2023/09/22 02:34:20;;;;;;;0.80;0.80;;;;;16.20;95148.00;;;;8331965;28;20193;-72
2023/09/22 02:38:28;;;;;;;1.15;1.00;;;;;16.10;95143.00;;;;8331996;28;20511;-71
2023/09/22 02:42:31;;;;;;;1.85;0.90;;;;;16.10;95144.00;;;;8331163;28;20197;-72
2023/09/22 02:46:40;;;;;;;3.70;1.20;;;;;16.00;95136.00;;;;8331356;28;20252;-74
2023/09/22 02:50:47;;;;;;;0.93;0.93;;;;;16.00;95145.00;;;;8331811;28;20193;-74
2023/09/22 02:54:53;;;;;;;0.90;0.90;;;;;15.90;95164.00;;;;8331624;28;20718;-72
2023/09/22 02:58:57;;;;;;;1.45;1.05;;;;;15.90;95180.00;;;;8332034;28;20190;-72
2023/09/22 03:03:06;;;;;;;1.65;0.90;;;;;15.90;95175.00;;;;8364216;23;20259;-72
2023/09/22 03:07:09;;;;;;;0.82;0.82;;;;;15.80;95189.00;;;;8344156;28;20239;-72
2023/09/22 03:11:13;;;;;;;0.98;0.90;;;;;15.80;95219.00;;;;8335720;28;20733;-70
2023/09/22 03:15:16;;;;;;;1.10;1.10;;;;;15.80;95206.00;;;;8341491;28;20653;-70
2023/09/22 03:19:23;;;;;;;0.82;0.82;;;;;15.80;95191.00;;;;8342087;28;20215;-70
2023/09/22 03:23:29;;;;;;;1.00;1.00;;;;;15.80;95186.00;;;;8341894;28;20278;-70
2023/09/22 03:27:35;;;;;;;1.30;1.17;;;;;15.90;95182.00;;;;8345627;28;20527;-69
2023/09/22 03:31:41;;;;;;;1.70;1.08;;;;;15.90;95160.00;;;;8344854;28;20200;-69
2023/09/22 03:35:46;;;;;;;1.52;1.00;;;;;15.90;95151.00;;;;8339133;28;20255;-69
2023/09/22 03:39:50;;;;;;;1.10;1.10;;;;;16.00;95164.00;;;;8339182;28;20205;-69
2023/09/22 03:43:54;;;;;;;0.88;0.88;;;;;15.90;95175.00;;;;8345891;28;20193;-69
2023/09/22 03:47:58;;;;;;;1.20;1.10;;;;;16.00;95160.00;;;;8341962;28;20229;-70
2023/09/22 03:52:04;;;;;;;1.13;1.10;;;;;16.00;95160.00;;;;8340533;28;20201;-69
2023/09/22 03:56:09;;;;;;;1.40;1.30;;;;;16.00;95167.00;;;;8349832;28;20596;-70
2023/09/22 04:00:27;;;;;;;1.40;1.30;;;;;15.90;95179.00;;;;8350043;28;20975;-69
2023/09/22 04:04:30;;;;;;;1.08;1.05;;;;;15.90;95177.00;;;;8345572;28;20246;-66
2023/09/22 04:08:38;;;;;;;1.15;1.15;;;;;15.90;95166.00;;;;8347565;28;20232;-69
2023/09/22 04:12:43;;;;;;;1.00;1.00;;;;;15.90;95168.00;;;;8349969;28;20292;-69
2023/09/22 04:16:46;;;;;;;2.08;1.27;;;;;15.90;95166.00;;;;8351128;28;20197;-70
2023/09/22 04:20:51;;;;;;;1.20;1.20;;;;;15.90;95171.00;;;;8344822;28;20307;-70
2023/09/22 04:25:07;;;;;;;2.05;1.20;;;;;15.90;95180.00;;;;8347433;28;20232;-70
2023/09/22 04:29:13;;;;;;;1.42;1.33;;;;;15.90;95171.00;;;;8348732;28;20577;-69
2023/09/22 04:33:27;;;;;;;3.40;1.20;;;;;15.90;95183.00;;;;8346649;28;20235;-70
2023/09/22 04:41:51;;;;;;;2.88;1.25;;;;;15.70;95194.00;;;;8342326;28;20209;-70
2023/09/22 04:45:54;;;;;;;2.35;1.20;;;;;15.60;95214.00;;;;8347172;28;20220;-71
2023/09/22 04:49:58;;;;;;;1.35;1.30;;;;;15.50;95231.00;;;;8348344;28;20236;-69
2023/09/22 04:54:05;;;;;;;1.98;1.10;;;;;15.50;95240.00;;;;8345751;28;20617;-68
2023/09/22 04:58:14;;;;;;;2.72;1.80;;;;;15.50;95258.00;;;;8348715;28;20200;-69
2023/09/22 05:02:21;;;;;;;1.98;1.30;;;;;15.50;95252.00;;;;8345765;28;20312;-69
2023/09/22 05:06:25;;;;;;;1.60;1.50;;;;;15.50;95253.00;;;;8340095;28;20255;-70
2023/09/22 05:10:31;;;;;;;1.52;1.42;;;;;15.50;95275.00;;;;8335746;28;20200;-70
2023/09/22 05:14:38;;;;;;;1.40;1.30;;;;;15.50;95289.00;;;;8336078;28;20276;-69
2023/09/22 05:18:41;;;;;;;1.30;1.23;;;;;15.50;95291.00;;;;8343082;28;20205;-71
2023/09/22 05:22:47;;;;;;;4.60;1.40;;;;;15.50;95279.00;;;;8341231;28;20366;-72
2023/09/22 05:26:53;;;;;;;1.45;1.20;;;;;15.50;95274.00;;;;8345833;28;20243;-71
2023/09/22 05:31:00;;;;;;;2.03;1.10;;;;;15.50;95269.00;;;;8344637;28;20197;-70
2023/09/22 05:35:05;;;;;;;2.20;1.30;;;;;15.50;95275.00;;;;8346017;28;20232;-69
2023/09/22 05:39:10;;;;;;;1.83;1.40;;;;;15.50;95282.00;;;;8340973;28;20209;-71
2023/09/22 05:43:14;;;;;;;1.73;1.40;;;;;15.50;95293.00;;;;8339282;28;20244;-73
2023/09/22 05:47:19;;;;;;;3.50;1.40;;;;;15.50;95293.00;;;;8339152;28;20230;-71
2023/09/22 05:51:23;;;;;;;1.95;1.27;;;;;15.60;95288.00;;;;8341836;28;20239;-70
2023/09/22 05:55:30;;;;;;;1.55;1.45;;;;;15.70;95293.00;;;;8337054;28;20299;-70
2023/09/22 05:59:33;;;;;;;1.77;1.40;;;;;15.70;95292.00;;;;8343216;28;20201;-70
2023/09/22 06:03:41;;;;;;;3.70;1.40;;;;;15.70;95283.00;;;;8343605;28;20307;-69
2023/09/22 06:07:46;;;;;;;1.77;1.40;;;;;15.70;95299.00;;;;8342835;28;20716;-71
2023/09/22 06:11:50;;;;;;;1.67;1.50;;;;;15.70;95311.00;;;;8336040;28;20212;-72
2023/09/22 06:15:53;;;;;;;1.45;1.30;;;;;15.60;95321.00;;;;8337987;28;20208;-69
2023/09/22 06:20:07;;;;;;;1.50;1.40;;;;;15.60;95326.00;;;;8342147;28;20197;-68
2023/09/22 06:24:11;;;;;;;1.52;1.25;;;;;15.60;95328.00;;;;8338530;28;20201;-70
2023/09/22 06:28:20;;;;;;;2.35;1.67;;;;;15.50;95314.00;;;;8343117;28;20232;-68
2023/09/22 06:32:28;;;;;;;1.80;1.33;;;;;15.50;95317.00;;;;8336983;28;20211;-69
2023/09/22 06:36:40;;;;;;;3.67;1.80;;;;;15.60;95322.00;;;;8339709;28;20778;-71
2023/09/22 06:40:45;;;;;;;2.67;1.30;;;;;15.70;95326.00;;;;8339427;28;20203;-72
2023/09/22 06:44:48;;;;;;;1.65;1.55;;;;;15.70;95325.00;;;;8339504;28;20215;-71
2023/09/22 06:48:57;;;;;;;3.55;1.63;;;;;15.80;95327.00;;;;8333042;28;20730;-71
2023/09/22 06:53:02;;;;;;;1.30;1.27;;;;;15.80;95326.00;;;;8340757;28;20239;-71
2023/09/22 06:57:05;;;;;;;1.52;1.40;;;;;15.90;95329.00;;;;8338079;28;20207;-70
2023/09/22 07:01:13;;;;;;;2.22;1.48;;;;;15.90;95322.00;;;;8336973;28;20247;-70
2023/09/22 07:05:19;;;;;;;1.58;1.30;;;;;16.00;95310.00;;;;8333108;28;20745;-71
2023/09/22 07:09:25;;;;;;;1.92;1.50;;;;;16.00;95314.00;;;;8339729;28;20283;-71
2023/09/22 07:13:35;;;;;;;1.77;1.67;;;;;16.10;95326.00;;;;8341672;28;20300;-69
2023/09/22 07:17:42;;;;;;;2.72;1.60;;;;;16.10;95350.00;;;;8334871;28;20207;-70
2023/09/22 07:21:46;;;;;;;2.65;1.60;;;;;16.20;95358.00;;;;8332999;28;20222;-70
2023/09/22 07:26:04;;;;;;;2.20;2.00;;;;;16.20;95354.00;;;;8333927;28;20231;-71
2023/09/22 07:30:10;;;;;;;1.75;1.60;;;;;16.20;95352.00;;;;8334456;28;20906;-72
2023/09/22 07:34:16;;;;;;;2.00;1.90;;;;;16.10;95364.00;;;;8339675;28;20193;-73
2023/09/22 07:38:19;;;;;;;1.73;1.63;;;;;16.20;95366.00;;;;8336903;28;20618;-73
2023/09/22 07:42:27;;;;;;;1.90;1.80;;;;;16.10;95373.00;;;;8335261;28;20291;-74
2023/09/22 07:46:34;;;;;;;1.63;1.52;;;;;16.00;95368.00;;;;8340856;28;20232;-75
2023/09/22 07:50:39;;;;;;;2.95;1.50;;;;;16.00;95367.00;;;;8338600;28;20239;-73
2023/09/22 07:54:42;;;;;;;2.35;1.60;;;;;16.00;95375.00;;;;8344689;28;20267;-76
2023/09/22 07:58:46;;;;;;;1.70;1.60;;;;;16.00;95379.00;;;;8338911;28;20258;-74
2023/09/22 08:03:13;;;;;;;3.03;1.80;;;;;16.00;95385.00;;;;8338268;28;20648;-73
2023/09/22 08:07:18;;;;;;;2.63;1.60;;;;;16.10;95401.00;;;;8328010;28;20232;-74
2023/09/22 08:11:23;;;;;;;3.63;1.70;;;;;16.30;95395.00;;;;8331508;28;20200;-74
2023/09/22 08:15:34;;;;;;;3.03;1.65;;;;;16.40;95402.00;;;;8341046;28;20203;-76
2023/09/22 08:19:40;;;;;;;1.50;1.50;;;;;16.40;95416.00;;;;8345131;28;20197;-75
2023/09/22 08:23:45;;;;;;;1.90;1.50;;;;;16.50;95417.00;;;;8337534;28;20288;-73
2023/09/22 08:27:54;;;;;;;1.58;1.48;;;;;16.70;95423.00;;;;8333251;28;20813;-75
2023/09/22 08:31:59;;;;;;;1.83;1.40;;;;;16.60;95427.00;;;;8331677;28;20909;-72
2023/09/22 08:36:11;;;;;;;2.58;1.58;;;;;16.50;95429.00;;;;8333587;28;20205;-79
2023/09/22 08:40:23;;;;;;;1.42;1.33;;;;;16.40;95432.00;;;;8337557;28;20766;-76
2023/09/22 08:44:34;;;;;;;2.22;1.55;;;;;16.40;95445.00;;;;8344697;28;20200;-73
2023/09/22 08:48:38;;;;;;;3.15;1.80;;;;;16.20;95443.00;;;;8334875;28;20225;-70
2023/09/22 08:52:47;;;;;;;1.90;1.80;;;;;16.20;95434.00;;;;8345551;28;20200;-71
2023/09/22 08:56:51;;;;;;;1.85;1.75;;;;;16.10;95436.00;;;;8345532;28;20211;-72
2023/09/22 09:00:54;;;;;;;1.90;1.80;;;;;16.20;95432.00;;;;8344775;28;20303;-72
2023/09/22 09:05:14;;;;;;;1.77;1.67;;;;;16.10;95422.00;;;;8338070;28;20207;-72
2023/09/22 09:09:21;;;;;;;1.70;1.60;;;;;16.20;95430.00;;;;8340602;28;20232;-71
2023/09/22 09:13:27;;;;;;;1.65;1.55;;;;;16.10;95429.00;;;;8339743;28;20197;-73
2023/09/22 09:17:30;;;;;;;1.80;1.70;;;;;16.00;95434.00;;;;8344393;28;20209;-73
2023/09/22 09:21:36;;;;;;;5.47;1.77;;;;;16.00;95430.00;;;;8340465;28;20824;-73
2023/09/22 09:25:44;;;;;;;2.10;1.92;;;;;16.10;95428.00;;;;8336680;28;20209;-73
2023/09/22 09:29:50;;;;;;;2.17;1.55;;;;;16.00;95436.00;;;;8344718;28;20256;-73
2023/09/22 09:33:54;;;;;;;1.65;1.48;;;;;15.90;95447.00;;;;8341687;28;20201;-73
2023/09/22 09:38:03;;;;;;;1.48;1.40;;;;;15.80;95454.00;;;;8333225;28;20342;-66
2023/09/22 09:42:09;;;;;;;1.88;1.40;;;;;15.90;95450.00;;;;8338247;28;20291;-66
2023/09/22 09:46:17;;;;;;;2.10;1.60;;;;;16.00;95465.00;;;;8336379;28;20708;-68
2023/09/22 09:50:23;;;;;;;2.55;1.83;;;;;16.00;95441.00;;;;8337277;28;20209;-68
2023/09/22 09:54:34;;;;;;;2.33;1.52;;;;;15.80;95448.00;;;;8340609;28;20641;-68
2023/09/22 09:58:39;;;;;;;1.70;1.65;;;;;15.80;95445.00;;;;8344471;28;20693;-68
2023/09/22 10:02:44;;;;;;;3.42;1.63;;;;;15.80;95462.00;;;;8342577;28;20720;-67
2023/09/22 10:06:51;;;;;;;1.65;1.50;;;;;15.80;95447.00;;;;8339506;28;20244;-67
2023/09/22 10:11:00;;;;;;;3.50;1.92;;;;;15.90;95454.00;;;;8335820;28;20193;-67
2023/09/22 10:15:05;;;;;;;1.90;1.80;;;;;16.00;95442.00;;;;8338971;28;20205;-68
2023/09/22 10:19:11;;;;;;;4.85;1.65;;;;;15.90;95446.00;;;;8339683;28;20683;-68
2023/09/22 10:23:18;;;;;;;1.60;1.50;;;;;15.90;95437.00;;;;8338784;28;20619;-68
2023/09/22 10:27:25;;;;;;;1.63;1.52;;;;;15.80;95438.00;;;;8338092;28;20228;-68
2023/09/22 10:31:31;;;;;;;2.00;1.50;;;;;15.90;95430.00;;;;8340559;28;20228;-69
2023/09/22 10:35:44;;;;;;;1.48;1.38;;;;;15.80;95425.00;;;;8335983;28;20201;-69
2023/09/22 10:39:58;;;;;;;1.95;1.30;;;;;15.80;95444.00;;;;8340074;28;20229;-69
2023/09/22 10:44:05;;;;;;;1.70;1.60;;;;;15.80;95445.00;;;;8337524;28;20236;-68
2023/09/22 10:48:11;;;;;;;1.25;1.23;;;;;15.70;95447.00;;;;8337660;28;20315;-69
2023/09/22 10:52:17;;;;;;;1.73;1.42;;;;;15.60;95450.00;;;;8342649;28;20919;-70
2023/09/22 10:56:21;;;;;;;1.35;1.35;;;;;15.60;95458.00;;;;8339376;28;20279;-70
2023/09/22 11:00:26;;;;;;;1.33;1.30;;;;;15.70;95443.00;;;;8322206;28;21110;-70
2023/09/22 11:04:47;;;;;;;1.88;1.40;;;;;15.90;95444.00;;;;8335147;28;20220;-69
2023/09/22 11:08:54;;;;;;;1.63;1.52;;;;;15.90;95449.00;;;;8340032;28;20235;-68
2023/09/22 11:12:59;;;;;;;3.22;1.77;;;;;15.80;95459.00;;;;8337960;28;20197;-68
2023/09/22 11:17:04;;;;;;;1.77;1.67;;;;;15.90;95459.00;;;;8336703;28;20300;-68
2023/09/22 11:21:09;;;;;;;2.38;1.90;;;;;16.10;95459.00;;;;8345262;28;20228;-68
2023/09/22 11:25:21;;;;;;;1.70;1.60;;;;;16.30;95443.00;;;;8345139;28;20205;-68
2023/09/22 11:29:28;;;;;;;1.52;1.50;;;;;16.40;95441.00;;;;8344725;28;20220;-68
2023/09/22 11:33:32;;;;;;;3.78;2.10;;;;;16.60;95440.00;;;;8345581;28;20201;-68
2023/09/22 11:37:40;;;;;;;1.67;1.48;;;;;16.60;95437.00;;;;8344106;28;20208;-70
2023/09/22 11:41:48;;;;;;;1.73;1.58;;;;;16.50;95443.00;;;;8346047;28;20270;-69
2023/09/22 11:46:05;;;;;;;1.58;1.58;;;;;16.40;95461.00;;;;8344981;28;20206;-69
2023/09/22 11:50:30;;;;;;;1.75;1.65;;;;;16.30;95465.00;;;;8346844;28;20221;-69
2023/09/22 11:54:35;;;;;;;1.83;1.70;;;;;16.20;95473.00;;;;8344977;28;20875;-70
2023/09/22 11:58:41;;;;;;;2.85;1.88;;;;;16.00;95461.00;;;;8345751;28;20189;-70
2023/09/22 12:02:46;;;;;;;2.08;1.98;;;;;16.00;95459.00;;;;8344964;28;20230;-70
2023/09/22 12:06:53;;;;;;;1.70;1.60;;;;;16.00;95452.00;;;;8345422;28;20209;-70
2023/09/22 12:11:00;;;;;;;3.78;2.03;;;;;15.80;95453.00;;;;8343651;28;20311;-70
2023/09/22 12:15:05;;;;;;;1.88;1.77;;;;;15.70;95460.00;;;;8347873;28;20236;-69
2023/09/22 12:19:08;;;;;;;2.15;1.50;;;;;15.60;95463.00;;;;8352050;28;20723;-69
2023/09/22 12:23:17;;;;;;;3.28;1.50;;;;;15.40;95461.00;;;;8351862;28;21149;-69
2023/09/22 12:27:21;;;;;;;1.73;1.63;;;;;15.30;95466.00;;;;8351115;28;20203;-70
2023/09/22 12:31:24;;;;;;;1.95;1.70;;;;;15.50;95466.00;;;;8350365;28;20798;-70
2023/09/22 12:35:30;;;;;;;3.08;1.75;;;;;15.50;95464.00;;;;8348772;28;20200;-71
2023/09/22 12:39:36;;;;;;;1.65;1.55;;;;;15.50;95442.00;;;;8347563;28;20197;-69
2023/09/22 12:43:39;;;;;;;1.65;1.55;;;;;15.50;95432.00;;;;8348688;28;20196;-69
2023/09/22 12:47:45;;;;;;;2.63;1.60;;;;;15.70;95440.00;;;;8347053;28;20224;-69
2023/09/22 12:51:51;;;;;;;3.15;1.98;;;;;15.90;95439.00;;;;8340804;28;20236;-75
2023/09/22 12:56:00;;;;;;;2.15;1.95;;;;;15.90;95449.00;;;;8335426;28;20241;-74
2023/09/22 13:00:06;;;;;;;2.97;2.25;;;;;16.00;95445.00;;;;8338327;28;20292;-73
2023/09/22 13:04:11;;;;;;;3.28;1.70;;;;;16.20;95437.00;;;;8344159;28;20311;-75
2023/09/22 13:08:16;;;;;;;1.80;1.70;;;;;16.30;95446.00;;;;8339019;28;20232;-75
2023/09/22 13:12:20;;;;;;;1.90;1.80;;;;;16.10;95447.00;;;;8348155;28;20215;-71
2023/09/22 13:16:24;;;;;;;1.73;1.58;;;;;16.00;95445.00;;;;8345178;28;20291;-77
2023/09/22 13:20:27;;;;;;;1.67;1.52;;;;;15.90;95460.00;;;;8346617;28;20936;-74
2023/09/22 13:24:31;;;;;;;1.73;1.48;;;;;15.80;95481.00;;;;8345473;28;20626;-70
2023/09/22 13:28:48;;;;;;;3.05;1.50;;;;;15.80;95482.00;;;;8348813;28;20256;-72
2023/09/22 13:32:52;;;;;;;2.10;1.40;;;;;15.70;95473.00;;;;8347221;28;20204;-72
2023/09/22 13:37:03;;;;;;;1.98;1.80;;;;;15.60;95469.00;;;;8346085;28;20854;-74
2023/09/22 13:41:11;;;;;;;1.83;1.73;;;;;15.60;95463.00;;;;8340444;28;20201;-73
2023/09/22 13:45:17;;;;;;;3.72;2.10;;;;;15.60;95442.00;;;;8347680;28;20231;-72
2023/09/22 13:49:31;;;;;;;2.45;1.75;;;;;15.60;95440.00;;;;8345931;28;20224;-73
2023/09/22 13:53:36;;;;;;;1.95;1.85;;;;;15.60;95437.00;;;;8345842;28;20201;-72
2023/09/22 13:57:42;;;;;;;1.65;1.55;;;;;15.70;95429.00;;;;8346479;28;20207;-75
2023/09/22 14:01:47;;;;;;;2.20;1.85;;;;;15.80;95419.00;;;;8346593;28;20224;-70
2023/09/22 14:05:50;;;;;;;2.35;1.58;;;;;15.90;95395.00;;;;8347508;28;20196;-73
2023/09/22 14:09:56;;;;;;;2.13;2.03;;;;;16.00;95386.00;;;;8345787;28;21239;-71
2023/09/22 14:14:00;;;;;;;6.10;5.03;;;;;16.10;95380.00;;;;8343007;28;20879;-70
2023/09/22 14:18:05;;;;;;;2.63;2.42;;;;;16.10;95434.00;;;;8340364;28;20203;-71
2023/09/22 14:22:08;;;;;;;2.67;2.50;;;;;15.90;95451.00;;;;8343197;28;20204;-71
2023/09/22 14:26:15;;;;;;;5.47;3.30;;;;;15.70;95473.00;;;;8344264;28;20284;-70
2023/09/22 14:30:20;;;;;;;4.22;3.45;;;;;15.60;95449.00;;;;8343689;28;20228;-72
2023/09/22 14:34:26;;;;;;;4.50;4.10;;;;;15.40;95477.00;;;;8343612;28;20283;-71
2023/09/22 14:38:33;;;;;;;5.40;4.90;;;;;15.40;95478.00;;;;8342830;28;20209;-72
2023/09/22 14:42:38;;;;;;;8.85;5.28;;;;;15.30;95478.00;;;;8344675;28;20197;-71
2023/09/22 14:46:45;;;;;;;5.65;5.15;;;;;15.40;95469.00;;;;8343205;28;20200;-73
2023/09/22 14:50:59;;;;;;;4.68;4.28;;;;;15.40;95472.00;;;;8345387;28;20224;-73
2023/09/22 14:55:04;;;;;;;4.32;3.92;;;;;15.40;95476.00;;;;8341769;28;20196;-74
2023/09/22 14:59:13;;;;;;;4.35;3.95;;;;;15.40;95473.00;;;;8341746;28;20208;-75
2023/09/22 15:03:16;;;;;;;4.20;3.80;;;;;15.40;95480.00;;;;8335465;28;20231;-73
2023/09/22 15:07:21;;;;;;;3.65;3.30;;;;;15.40;95459.00;;;;8343922;28;20212;-74
2023/09/22 15:11:24;;;;;;;3.20;2.90;;;;;15.40;95465.00;;;;8343208;28;20311;-76
2023/09/22 15:15:27;;;;;;;2.60;2.40;;;;;15.40;95469.00;;;;8343921;28;20201;-74
2023/09/22 15:19:34;;;;;;;3.58;2.70;;;;;15.40;95474.00;;;;8344631;28;20247;-72
2023/09/22 15:23:39;;;;;;;2.80;2.42;;;;;15.30;95480.00;;;;8344773;28;20341;-70
2023/09/22 15:27:42;;;;;;;2.47;2.33;;;;;15.20;95485.00;;;;8342504;28;20191;-71
2023/09/22 15:31:46;;;;;;;2.92;2.72;;;;;15.10;95497.00;;;;8342314;28;20228;-70
2023/09/22 15:35:52;;;;;;;4.32;2.83;;;;;15.00;95526.00;;;;8342304;28;20185;-75
2023/09/22 15:39:57;;;;;;;2.50;2.25;;;;;14.90;95534.00;;;;8346180;28;20612;-75
2023/09/22 15:44:03;;;;;;;5.38;2.17;;;;;14.80;95535.00;;;;8345447;28;20215;-75
2023/09/22 15:48:07;;;;;;;2.28;2.15;;;;;14.70;95541.00;;;;8349223;28;20626;-73
2023/09/22 15:52:13;;;;;;;2.30;2.15;;;;;14.60;95534.00;;;;8348150;28;20274;-72
2023/09/22 15:56:20;;;;;;;3.35;2.00;;;;;14.60;95533.00;;;;8349648;28;20205;-73
2023/09/22 16:00:26;;;;;;;3.13;2.20;;;;;14.50;95538.00;;;;8348137;28;20224;-72
2023/09/22 16:04:30;;;;;;;3.22;2.33;;;;;14.50;95535.00;;;;8350800;28;20251;-74
2023/09/22 16:08:38;;;;;;;2.80;2.60;;;;;14.60;95511.00;;;;8348868;28;20196;-73
2023/09/22 16:12:43;;;;;;;2.22;1.92;;;;;14.60;95489.00;;;;8341993;28;20627;-74
2023/09/22 16:16:48;;;;;;;2.50;2.30;;;;;14.60;95498.00;;;;8349228;28;20296;-74
2023/09/22 16:20:51;;;;;;;2.95;1.80;;;;;14.50;95504.00;;;;8345578;28;21026;-74
2023/09/22 16:24:55;;;;;;;3.38;2.38;;;;;14.40;95516.00;;;;8345340;28;20228;-73
2023/09/22 16:29:00;;;;;;;5.43;2.60;;;;;14.40;95520.00;;;;8346491;28;20259;-75
2023/09/22 16:33:04;;;;;;;2.40;2.20;;;;;14.40;95518.00;;;;8346174;28;20262;-76
2023/09/22 16:37:08;;;;;;;2.42;2.22;;;;;14.40;95528.00;;;;8338728;28;20259;-74
2023/09/22 16:41:13;;;;;;;2.92;1.95;;;;;14.30;95531.00;;;;8347617;28;20279;-79
2023/09/22 16:45:19;;;;;;;2.50;2.30;;;;;14.40;95538.00;;;;8346205;28;20240;-80
2023/09/22 16:49:23;;;;;;;2.58;2.38;;;;;14.40;95551.00;;;;8346203;28;20221;-79
2023/09/22 16:53:27;;;;;;;5.07;2.65;;;;;14.40;95521.00;;;;8339000;28;20200;-79
2023/09/22 16:57:32;;;;;;;5.32;2.75;;;;;14.40;95528.00;;;;8345158;28;20205;-77
2023/09/22 17:01:37;;;;;;;3.78;2.40;;;;;14.50;95540.00;;;;8344299;28;20290;-78
2023/09/22 17:05:40;;;;;;;4.90;2.50;;;;;14.50;95545.00;;;;8337432;28;20239;-68
2023/09/22 17:09:46;;;;;;;2.70;2.50;;;;;14.40;95547.00;;;;8347702;28;20266;-68
2023/09/22 17:13:56;;;;;;;3.95;2.45;;;;;14.40;95547.00;;;;8341642;28;20200;-67
2023/09/22 17:18:01;;;;;;;2.60;2.40;;;;;14.30;95541.00;;;;8344197;28;20197;-67
2023/09/22 17:22:06;;;;;;;2.20;2.10;;;;;14.30;95536.00;;;;8342455;28;20246;-67
2023/09/22 17:26:11;;;;;;;2.20;2.10;;;;;14.20;95524.00;;;;8347593;28;20189;-67
2023/09/22 17:30:17;;;;;;;5.18;2.00;;;;;14.20;95532.00;;;;8345458;28;20301;-68
2023/09/22 17:34:23;;;;;;;2.25;1.85;;;;;14.20;95526.00;;;;8345763;28;20204;-67
2023/09/22 17:38:26;;;;;;;3.85;1.80;;;;;14.10;95530.00;;;;8347410;28;20208;-67
2023/09/22 17:42:31;;;;;;;2.40;1.77;;;;;14.10;95539.00;;;;8346091;28;20712;-67
2023/09/22 17:46:34;;;;;;;2.30;2.10;;;;;14.10;95542.00;;;;8346923;28;20200;-66
2023/09/22 17:50:39;;;;;;;1.90;1.80;;;;;14.00;95557.00;;;;8333763;28;20319;-66
2023/09/22 17:54:43;;;;;;;3.63;1.83;;;;;14.00;95559.00;;;;8347793;28;20204;-66
2023/09/22 17:58:46;;;;;;;2.00;1.77;;;;;14.00;95564.00;;;;8345309;28;20252;-67
2023/09/22 18:02:51;;;;;;;2.28;2.08;;;;;13.90;95566.00;;;;8345779;28;20644;-67
2023/09/22 18:06:57;;;;;;;2.20;2.00;;;;;13.90;95581.00;;;;8347752;28;20246;-67
2023/09/22 18:11:02;;;;;;;2.17;1.90;;;;;13.90;95583.00;;;;8340412;28;20726;-67
2023/09/22 18:15:06;;;;;;;1.80;1.70;;;;;13.90;95585.00;;;;8359271;28;20254;-67
2023/09/22 18:19:10;;;;;;;2.13;1.70;;;;;13.80;95587.00;;;;8345379;28;20205;-67
2023/09/22 18:23:15;;;;;;;2.05;1.77;;;;;13.80;95580.00;;;;8342526;28;20304;-68
2023/09/22 18:27:22;;;;;;;1.80;1.70;;;;;13.80;95570.00;;;;8346428;28;20196;-67
2023/09/22 18:31:27;;;;;;;23.13;18.20;;;;;13.80;95574.00;;;;8343355;28;20319;-66
2023/09/22 18:35:35;;;;;;;1.65;1.58;;;;;13.70;95567.00;;;;8345480;28;20200;-65
2023/09/22 18:39:42;;;;;;;2.78;1.90;;;;;13.70;95544.00;;;;8347015;28;20279;-65
2023/09/22 18:43:46;;;;;;;2.10;1.77;;;;;13.70;95555.00;;;;8341567;28;20193;-66
2023/09/22 18:47:49;;;;;;;2.33;1.73;;;;;13.60;95570.00;;;;8345400;28;20196;-66
2023/09/22 18:51:53;;;;;;;4.43;1.65;;;;;13.60;95577.00;;;;8343982;28;20220;-66
2023/09/22 18:56:00;;;;;;;2.72;1.55;;;;;13.60;95586.00;;;;8345939;28;20228;-66
2023/09/22 19:00:04;;;;;;;6.32;1.65;;;;;13.50;95579.00;;;;8340964;28;20212;-66
2023/09/22 19:04:12;;;;;;;1.48;1.40;;;;;13.50;95588.00;;;;8336821;28;20648;-66
2023/09/22 19:08:16;;;;;;;1.92;1.70;;;;;13.50;95597.00;;;;8341348;28;20300;-66
2023/09/22 19:12:20;;;;;;;3.35;1.42;;;;;13.50;95594.00;;;;8342916;28;20236;-67
2023/09/22 19:16:24;;;;;;;1.40;1.30;;;;;13.50;95595.00;;;;8340291;28;20636;-66
2023/09/22 19:20:30;;;;;;;3.55;1.48;;;;;13.40;95601.00;;;;8341628;28;20204;-67
2023/09/22 19:24:34;;;;;;;1.67;1.52;;;;;13.50;95609.00;;;;8335860;28;20291;-66
2023/09/22 19:28:40;;;;;;;2.45;1.50;;;;;13.50;95618.00;;;;8339159;28;20206;-66
2023/09/22 19:32:46;;;;;;;2.45;1.58;;;;;13.50;95622.00;;;;8339660;28;20277;-66
2023/09/22 19:36:52;;;;;;;2.45;1.50;;;;;13.50;95625.00;;;;8342667;28;20550;-66
2023/09/22 19:40:55;;;;;;;2.58;1.40;;;;;13.50;95642.00;;;;8350760;28;20228;-67
2023/09/22 19:44:59;;;;;;;1.67;1.33;;;;;13.50;95626.00;;;;8350396;28;20238;-67
2023/09/22 19:49:05;;;;;;;1.77;1.25;;;;;13.50;95619.00;;;;8348572;28;20907;-67
2023/09/22 19:53:10;;;;;;;2.83;1.27;;;;;13.50;95623.00;;;;8345339;28;20236;-67
2023/09/22 19:57:17;;;;;;;1.60;1.50;;;;;13.50;95614.00;;;;8342708;28;20288;-66
2023/09/22 20:01:25;;;;;;;2.30;1.27;;;;;13.50;95618.00;;;;8356674;28;20319;-67
2023/09/22 20:05:35;;;;;;;2.85;1.50;;;;;13.40;95630.00;;;;8352250;28;21137;-67
2023/09/22 20:09:38;;;;;;;1.67;1.60;;;;;13.40;95635.00;;;;8353352;28;20847;-67
2023/09/22 20:13:48;;;;;;;3.05;1.55;;;;;13.40;95633.00;;;;8349708;28;20775;-67
2023/09/22 20:17:55;;;;;;;2.47;1.90;;;;;13.40;95640.00;;;;8352057;28;20197;-67
2023/09/22 20:21:59;;;;;;;2.00;1.80;;;;;13.50;95652.00;;;;8350977;28;20201;-67
2023/09/22 20:26:05;;;;;;;3.95;1.50;;;;;13.50;95648.00;;;;8350631;28;20736;-67
2023/09/22 20:30:11;;;;;;;1.50;1.40;;;;;13.50;95651.00;;;;8344860;28;20236;-67
2023/09/22 20:34:19;;;;;;;2.05;1.60;;;;;13.40;95652.00;;;;8344500;28;20320;-67
2023/09/22 20:38:30;;;;;;;2.38;1.58;;;;;13.50;95651.00;;;;8351086;28;20703;-66